createdAt,value
2022-09-23T00:00:36.099Z,99040.75
2022-09-23T00:02:37.817Z,99042.06
2022-09-23T00:04:39.446Z,99038.75
2022-09-23T00:06:44.264Z,99034.63
2022-09-23T00:08:46.398Z,99048.53
2022-09-23T00:10:47.961Z,99045.22
2022-09-23T00:12:49.480Z,99049.53
2022-09-23T00:14:53.292Z,99049.53
2022-09-23T00:16:54.861Z,99051.69
2022-09-23T00:18:56.739Z,99049.44
2022-09-23T00:21:02.135Z,99048.88
2022-09-23T00:23:03.832Z,99049.59
2022-09-23T00:25:07.541Z,99049.03
2022-09-23T00:27:09.907Z,99041.09
2022-09-23T00:29:11.887Z,99041.56
2022-09-23T00:31:22.384Z,99042.63
2022-09-23T00:33:24.066Z,99044.78
2022-09-23T00:35:25.667Z,99042.56
2022-09-23T00:37:34.239Z,99032.16
2022-09-23T00:39:36.068Z,99038.94
2022-09-23T00:41:37.790Z,99032.06
2022-09-23T00:43:41.025Z,99033.38
2022-09-23T00:45:47.709Z,99033.03
2022-09-23T00:48:01.556Z,99033.28
2022-09-23T00:50:12.859Z,99026.63
2022-09-23T00:52:20.440Z,99014.53
2022-09-23T00:54:24.780Z,99021.31
2022-09-23T00:56:26.571Z,99019.66
2022-09-23T00:58:31.773Z,99030.22
2022-09-23T01:00:38.171Z,99025.03
2022-09-23T01:02:39.914Z,99020.63
2022-09-23T01:04:42.607Z,99016.50
2022-09-23T01:06:44.552Z,99017.59
2022-09-23T01:08:47.542Z,99017.00
2022-09-23T01:11:07.425Z,99023.53
2022-09-23T01:13:36.173Z,99012.25
2022-09-23T01:15:48.515Z,99021.75
2022-09-23T01:17:55.415Z,99015.50
2022-09-23T01:20:29.042Z,99021.44
2022-09-23T01:22:56.617Z,99011.84
2022-09-23T01:25:17.106Z,99012.06
2022-09-23T01:27:54.732Z,99014.22
2022-09-23T01:30:18.301Z,99013.63
2022-09-23T01:32:45.725Z,99017.44
2022-09-23T01:34:57.106Z,99010.34
2022-09-23T01:37:13.909Z,99010.56
2022-09-23T01:39:15.527Z,99004.03
2022-09-23T01:41:32.976Z,99007.84
2022-09-23T01:43:42.410Z,99008.09
2022-09-23T01:45:46.973Z,99002.63
2022-09-23T01:47:53.378Z,99000.16
2022-09-23T01:50:03.380Z,98998.22
2022-09-23T01:52:14.731Z,99000.38
2022-09-23T01:54:26.076Z,98989.94
2022-09-23T01:57:01.864Z,98990.78
2022-09-23T01:59:38.317Z,98986.06
2022-09-23T02:01:50.870Z,98990.13
2022-09-23T02:04:01.931Z,98996.63
2022-09-23T02:06:09.314Z,98992.50
2022-09-23T02:08:16.601Z,98989.19
2022-09-23T02:10:28.837Z,98988.34
2022-09-23T02:12:34.013Z,98987.78
2022-09-23T02:14:47.128Z,98989.09
2022-09-23T02:16:52.281Z,98998.34
2022-09-23T02:19:09.782Z,98990.66
2022-09-23T02:21:12.765Z,98997.16
2022-09-23T02:23:23.083Z,98989.25
2022-09-23T02:25:38.954Z,98993.84
2022-09-23T02:28:06.049Z,98986.41
2022-09-23T02:30:19.177Z,98995.91
2022-09-23T02:32:49.756Z,98996.13
2022-09-23T02:35:18.309Z,98997.44
2022-09-23T02:37:49.561Z,98992.50
2022-09-23T02:39:58.676Z,98990.00
2022-09-23T02:42:12.844Z,98991.31
2022-09-23T02:44:18.658Z,98988.81
2022-09-23T02:46:21.292Z,98988.25
2022-09-23T02:48:29.145Z,98993.94
2022-09-23T02:50:32.350Z,98998.78
2022-09-23T02:52:33.862Z,98996.31
2022-09-23T02:54:37.381Z,98990.25
2022-09-23T02:56:39.069Z,98994.06
2022-09-23T02:58:43.825Z,98988.25
2022-09-23T03:01:40.100Z,98996.09
2022-09-23T03:04:16.351Z,98988.16
2022-09-23T03:06:33.940Z,98989.72
2022-09-23T03:08:45.615Z,98981.75
2022-09-23T03:11:01.955Z,98980.34
2022-09-23T03:13:13.368Z,98988.50
2022-09-23T03:15:38.001Z,98980.84
2022-09-23T03:17:46.754Z,98986.50
2022-09-23T03:19:53.663Z,98978.59
2022-09-23T03:22:19.616Z,98975.28
2022-09-23T03:24:23.908Z,98975.50
2022-09-23T03:26:31.390Z,98974.66
2022-09-23T03:28:43.229Z,98973.25
2022-09-23T03:30:45.377Z,98980.63
2022-09-23T03:32:47.270Z,98969.94
2022-09-23T03:34:52.903Z,98964.75
2022-09-23T03:37:34.024Z,98962.50
2022-09-23T03:39:48.680Z,98957.25
2022-09-23T03:41:52.981Z,98957.50
2022-09-23T03:44:01.009Z,98958.56
2022-09-23T03:46:02.986Z,98952.53
2022-09-23T03:48:07.853Z,98947.09
2022-09-23T03:50:10.232Z,98944.63
2022-09-23T03:52:11.796Z,98950.28
2022-09-23T03:54:13.409Z,98940.47
2022-09-23T03:56:15.153Z,98949.69
2022-09-23T03:58:17.832Z,98952.69
2022-09-23T04:00:19.493Z,98951.84
2022-09-23T04:02:21.346Z,98950.38
2022-09-23T04:04:23.229Z,98946.84
2022-09-23T04:06:24.780Z,98951.69
2022-09-23T04:08:27.362Z,98946.50
2022-09-23T04:10:28.990Z,98946.72
2022-09-23T04:12:30.562Z,98941.53
2022-09-23T04:14:36.590Z,98948.28
2022-09-23T04:16:38.157Z,98949.09
2022-09-23T04:18:39.770Z,98941.63
2022-09-23T04:20:42.080Z,98938.09
2022-09-23T04:22:46.135Z,98939.16
2022-09-23T04:24:47.905Z,98937.47
2022-09-23T04:26:52.740Z,98942.34
2022-09-23T04:28:55.218Z,98944.22
2022-09-23T04:30:57.931Z,98942.59
2022-09-23T04:32:59.636Z,98933.84
2022-09-23T04:35:01.224Z,98939.50
2022-09-23T04:37:08.707Z,98935.16
2022-09-23T04:39:10.907Z,98931.81
2022-09-23T04:41:12.984Z,98940.22
2022-09-23T04:43:16.327Z,98936.91
2022-09-23T04:45:20.984Z,98933.34
2022-09-23T04:47:22.792Z,98932.78
2022-09-23T04:49:24.550Z,98924.03
2022-09-23T04:51:27.836Z,98924.25
2022-09-23T04:53:29.397Z,98926.38
2022-09-23T04:55:34.028Z,98930.16
2022-09-23T04:57:35.655Z,98929.56
2022-09-23T04:59:37.431Z,98929.22
2022-09-23T05:01:39.249Z,98933.00
2022-09-23T05:03:44.172Z,98935.97
2022-09-23T05:05:46.229Z,98933.47
2022-09-23T05:07:48.501Z,98931.00
2022-09-23T05:09:50.186Z,98939.38
2022-09-23T05:11:54.590Z,98936.06
2022-09-23T05:13:56.131Z,98938.19
2022-09-23T05:16:06.799Z,98934.88
2022-09-23T05:18:09.336Z,98937.03
2022-09-23T05:20:11.549Z,98935.34
2022-09-23T05:22:13.211Z,98933.47
2022-09-23T05:24:18.309Z,98941.84
2022-09-23T05:26:20.078Z,98936.66
2022-09-23T05:28:25.057Z,98941.50
2022-09-23T05:30:26.517Z,98940.66
2022-09-23T05:32:27.967Z,98935.47
2022-09-23T05:34:29.537Z,98940.91
2022-09-23T05:36:37.964Z,98942.56
2022-09-23T05:38:40.619Z,98947.16
2022-09-23T05:40:45.784Z,98944.69
2022-09-23T05:42:49.675Z,98950.97
2022-09-23T05:44:51.116Z,98949.28
2022-09-23T05:46:52.866Z,98952.84
2022-09-23T05:49:02.073Z,98956.41
2022-09-23T05:51:09.160Z,98957.25
2022-09-23T05:53:10.674Z,98951.81
2022-09-23T05:55:12.191Z,98953.69
2022-09-23T05:57:13.670Z,98954.53
2022-09-23T05:59:15.449Z,98952.59
2022-09-23T06:01:22.525Z,98956.16
2022-09-23T06:03:25.567Z,98958.41
2022-09-23T06:05:27.209Z,98957.38
2022-09-23T06:07:28.720Z,98948.72
2022-09-23T06:09:36.163Z,98948.50
2022-09-23T06:11:38.240Z,98952.19
2022-09-23T06:13:40.475Z,98948.50
2022-09-23T06:15:45.219Z,98951.34
2022-09-23T06:17:49.979Z,98949.81
2022-09-23T06:19:51.573Z,98951.84
2022-09-23T06:21:53.276Z,98955.72
2022-09-23T06:23:57.272Z,98955.00
2022-09-23T06:26:09.539Z,98948.63
2022-09-23T06:28:12.128Z,98954.19
2022-09-23T06:30:14.094Z,98953.72
2022-09-23T06:32:18.393Z,98948.84
2022-09-23T06:34:20.576Z,98948.38
2022-09-23T06:36:38.454Z,98947.31
2022-09-23T06:38:59.640Z,98944.72
2022-09-23T06:41:03.296Z,98945.66
2022-09-23T06:43:04.878Z,98945.06
2022-09-23T06:45:07.934Z,98944.22
2022-09-23T06:47:15.357Z,98944.22
2022-09-23T06:49:17.011Z,98946.06
2022-09-23T06:51:21.723Z,98947.94
2022-09-23T06:53:23.683Z,98948.97
2022-09-23T06:55:27.228Z,98945.03
2022-09-23T06:57:33.170Z,98949.56
2022-09-23T06:59:35.709Z,98946.22
2022-09-23T07:01:38.009Z,98946.66
2022-09-23T07:03:39.741Z,98947.19
2022-09-23T07:05:41.373Z,98949.00
2022-09-23T07:07:44.183Z,98950.81
2022-09-23T07:09:46.156Z,98939.00
2022-09-23T07:11:47.939Z,98943.06
2022-09-23T07:13:49.670Z,98940.50
2022-09-23T07:15:53.296Z,98943.47
2022-09-23T07:17:55.586Z,98937.66
2022-09-23T07:19:58.482Z,98937.53
2022-09-23T07:22:00.327Z,98937.16
2022-09-23T07:24:02.717Z,98930.47
2022-09-23T07:26:04.837Z,98930.94
2022-09-23T07:28:07.087Z,98939.00
2022-09-23T07:30:18.908Z,98931.47
2022-09-23T07:32:23.314Z,98931.91
2022-09-23T07:34:25.116Z,98927.94
2022-09-23T07:36:28.215Z,98933.00
2022-09-23T07:38:30.322Z,98935.31
2022-09-23T07:40:32.236Z,98943.91
2022-09-23T07:42:36.667Z,98940.75
2022-09-23T07:44:38.859Z,98941.13
2022-09-23T07:46:41.028Z,98945.34
2022-09-23T07:48:44.068Z,98934.72
2022-09-23T07:50:45.599Z,98941.41
2022-09-23T07:52:47.297Z,98932.47
2022-09-23T07:54:49.025Z,98934.19
2022-09-23T07:56:50.522Z,98923.28
2022-09-23T07:59:05.077Z,98926.34
2022-09-23T08:01:09.814Z,98922.56
2022-09-23T08:03:11.928Z,98918.19
2022-09-23T08:05:16.834Z,98923.72
2022-09-23T08:07:19.127Z,98917.16
2022-09-23T08:09:23.826Z,98913.28
2022-09-23T08:11:26.648Z,98909.94
2022-09-23T08:13:28.353Z,98911.25
2022-09-23T08:15:31.251Z,98914.75
2022-09-23T08:17:33.016Z,98912.19
2022-09-23T08:19:34.694Z,98907.38
2022-09-23T08:21:38.298Z,98905.00
2022-09-23T08:23:39.843Z,98900.44
2022-09-23T08:25:47.508Z,98902.75
2022-09-23T08:27:49.378Z,98910.00
2022-09-23T08:29:51.065Z,98900.69
2022-09-23T08:31:53.333Z,98905.44
2022-09-23T08:33:57.562Z,98906.97
2022-09-23T08:36:01.913Z,98906.47
2022-09-23T08:38:08.063Z,98913.22
2022-09-23T08:40:10.237Z,98905.84
2022-09-23T08:42:20.274Z,98902.88
2022-09-23T08:44:27.388Z,98908.47
2022-09-23T08:46:37.658Z,98901.63
2022-09-23T08:48:48.275Z,98895.03
2022-09-23T08:50:58.547Z,98892.00
2022-09-23T08:53:04.909Z,98884.28
2022-09-23T08:55:12.596Z,98883.16
2022-09-23T08:57:41.551Z,98881.25
2022-09-23T08:59:48.309Z,98874.03
2022-09-23T09:02:14.828Z,98867.34
2022-09-23T09:04:16.687Z,98867.34
2022-09-23T09:06:27.754Z,98865.38
2022-09-23T09:08:52.684Z,98869.25
2022-09-23T09:10:55.668Z,98871.47
2022-09-23T09:13:12.107Z,98866.56
2022-09-23T09:15:21.229Z,98858.63
2022-09-23T09:18:04.393Z,98859.84
2022-09-23T09:20:23.371Z,98860.75
2022-09-23T09:22:38.125Z,98851.69
2022-09-23T09:24:40.281Z,98860.06
2022-09-23T09:26:41.964Z,98857.34
2022-09-23T09:29:30.863Z,98858.53
2022-09-23T09:31:42.445Z,98849.34
2022-09-23T09:34:20.277Z,98848.75
2022-09-23T09:36:33.103Z,98851.13
2022-09-23T09:38:38.023Z,98849.72
2022-09-23T09:40:46.628Z,98851.88
2022-09-23T09:42:49.842Z,98841.31
2022-09-23T09:44:59.163Z,98837.13
2022-09-23T09:47:28.672Z,98839.63
2022-09-23T09:49:45.891Z,98829.00
2022-09-23T09:51:47.581Z,98840.31
2022-09-23T09:53:52.821Z,98840.31
2022-09-23T09:56:12.893Z,98835.59
2022-09-23T09:58:16.457Z,98826.94
2022-09-23T10:00:25.775Z,98826.13
2022-09-23T10:02:33.904Z,98824.16
2022-09-23T10:04:35.886Z,98816.66
2022-09-23T10:06:37.509Z,98816.66
2022-09-23T10:08:39.247Z,98816.13
2022-09-23T10:10:58.410Z,98818.91
2022-09-23T10:13:15.200Z,98816.44
2022-09-23T10:15:33.273Z,98805.28
2022-09-23T10:17:38.486Z,98804.47
2022-09-23T10:19:47.069Z,98804.91
2022-09-23T10:21:54.508Z,98802.94
2022-09-23T10:23:58.525Z,98794.53
2022-09-23T10:26:05.103Z,98795.34
2022-09-23T10:28:46.581Z,98793.31
2022-09-23T10:31:08.765Z,98780.16
2022-09-23T10:33:26.907Z,98785.66
2022-09-23T10:35:30.339Z,98778.91
2022-09-23T10:37:45.323Z,98783.59
2022-09-23T10:40:05.723Z,98773.25
2022-09-23T10:42:47.327Z,98782.25
2022-09-23T10:45:29.988Z,98774.25
2022-09-23T10:48:03.154Z,98770.59
2022-09-23T10:50:23.089Z,98772.03
2022-09-23T10:52:59.167Z,98772.75
2022-09-23T10:55:27.725Z,98767.44
2022-09-23T10:57:55.135Z,98767.72
2022-09-23T11:00:10.423Z,98756.00
2022-09-23T11:02:34.140Z,98752.66
2022-09-23T11:04:55.254Z,98761.03
2022-09-23T11:07:14.195Z,98747.56
2022-09-23T11:09:23.012Z,98752.44
2022-09-23T11:11:46.402Z,98748.38
2022-09-23T11:14:25.750Z,98753.94
2022-09-23T11:16:59.821Z,98741.50
2022-09-23T11:19:21.900Z,98745.94
2022-09-23T11:22:05.360Z,98744.59
2022-09-23T11:24:35.576Z,98738.22
2022-09-23T11:27:13.233Z,98743.13
2022-09-23T11:29:33.783Z,98736.06
2022-09-23T11:32:02.886Z,98732.56
2022-09-23T11:34:25.092Z,98733.03
2022-09-23T11:36:34.685Z,98720.00
2022-09-23T11:38:42.832Z,98717.72
2022-09-23T11:40:54.708Z,98719.00
2022-09-23T11:43:01.389Z,98718.16
2022-09-23T11:45:37.715Z,98712.69
2022-09-23T11:47:53.042Z,98712.28
2022-09-23T11:50:05.089Z,98711.09
2022-09-23T11:52:28.707Z,98708.31
2022-09-23T11:54:53.017Z,98700.06
2022-09-23T11:56:59.642Z,98701.81
2022-09-23T11:59:10.386Z,98694.38
2022-09-23T12:01:35.660Z,98688.06
2022-09-23T12:04:10.217Z,98684.56
2022-09-23T12:06:26.206Z,98686.69
2022-09-23T12:08:38.967Z,98684.03
2022-09-23T12:10:45.947Z,98689.03
2022-09-23T12:12:56.503Z,98679.13
2022-09-23T12:15:04.070Z,98682.03
2022-09-23T12:17:27.545Z,98679.25
2022-09-23T12:19:51.690Z,98673.31
2022-09-23T12:22:24.824Z,98664.09
2022-09-23T12:24:43.331Z,98673.75
2022-09-23T12:26:50.213Z,98667.00
2022-09-23T12:28:58.703Z,98656.16
2022-09-23T12:31:03.358Z,98661.41
2022-09-23T12:33:22.692Z,98659.78
2022-09-23T12:35:35.611Z,98657.94
2022-09-23T12:37:40.071Z,98655.22
2022-09-23T12:39:46.760Z,98656.16
2022-09-23T12:41:54.373Z,98653.13
2022-09-23T12:44:13.513Z,98651.69
2022-09-23T12:46:21.899Z,98650.28
2022-09-23T12:48:43.250Z,98644.91
2022-09-23T12:50:52.352Z,98649.19
2022-09-23T12:52:57.215Z,98646.72
2022-09-23T12:55:27.444Z,98642.16
2022-09-23T12:57:34.990Z,98643.16
2022-09-23T12:59:52.485Z,98647.34
2022-09-23T13:01:55.219Z,98633.53
2022-09-23T13:04:17.497Z,98636.44
2022-09-23T13:06:37.774Z,98636.19
2022-09-23T13:08:41.698Z,98631.13
2022-09-23T13:10:49.757Z,98622.00
2022-09-23T13:12:55.810Z,98619.31
2022-09-23T13:15:03.470Z,98618.59
2022-09-23T13:17:05.355Z,98610.66
2022-09-23T13:19:26.952Z,98609.84
2022-09-23T13:21:45.099Z,98603.88
2022-09-23T13:24:20.673Z,98604.34
2022-09-23T13:26:25.518Z,98606.41
2022-09-23T13:28:28.732Z,98596.94
2022-09-23T13:30:30.435Z,98610.22
2022-09-23T13:32:46.192Z,98597.47
2022-09-23T13:35:18.918Z,98591.97
2022-09-23T13:37:24.892Z,98588.78
2022-09-23T13:39:28.781Z,98587.25
2022-09-23T13:41:30.533Z,98578.06
2022-09-23T13:43:41.366Z,98579.22
2022-09-23T13:45:43.717Z,98578.06
2022-09-23T13:47:48.441Z,98580.88
2022-09-23T13:49:50.703Z,98576.06
2022-09-23T13:51:54.162Z,98570.44
2022-09-23T13:53:57.789Z,98571.19
2022-09-23T13:56:14.325Z,98575.88
2022-09-23T13:58:20.845Z,98575.06
2022-09-23T14:00:23.851Z,98572.53
2022-09-23T14:02:25.858Z,98573.63
2022-09-23T14:04:27.559Z,98575.09
2022-09-23T14:06:39.532Z,98575.31
2022-09-23T14:08:50.741Z,98566.72
2022-09-23T14:10:53.169Z,98569.44
2022-09-23T14:12:56.418Z,98565.38
2022-09-23T14:14:58.232Z,98565.28
2022-09-23T14:17:00.556Z,98558.78
2022-09-23T14:19:02.532Z,98546.31
2022-09-23T14:21:04.488Z,98547.38
2022-09-23T14:23:10.853Z,98552.91
2022-09-23T14:25:14.683Z,98558.38
2022-09-23T14:27:23.948Z,98555.84
2022-09-23T14:29:28.716Z,98556.13
2022-09-23T14:31:30.908Z,98560.44
2022-09-23T14:33:34.340Z,98555.09
2022-09-23T14:35:44.851Z,98552.09
2022-09-23T14:38:07.933Z,98548.41
2022-09-23T14:40:16.784Z,98544.47
2022-09-23T14:42:19.802Z,98540.78
2022-09-23T14:44:25.017Z,98539.03
2022-09-23T14:46:29.649Z,98546.88
2022-09-23T14:48:34.175Z,98543.06
2022-09-23T14:50:36.978Z,98543.31
2022-09-23T14:52:48.909Z,98541.81
2022-09-23T14:54:50.884Z,98538.47
2022-09-23T14:56:54.749Z,98543.78
2022-09-23T14:59:00.186Z,98535.56
2022-09-23T15:01:02.458Z,98535.00
2022-09-23T15:03:15.353Z,98536.75
2022-09-23T15:05:32.091Z,98532.56
2022-09-23T15:07:37.917Z,98524.34
2022-09-23T15:09:42.179Z,98526.53
2022-09-23T15:11:44.391Z,98520.75
2022-09-23T15:13:50.665Z,98533.28
2022-09-23T15:15:54.555Z,98527.50
2022-09-23T15:18:03.973Z,98522.81
2022-09-23T15:20:14.304Z,98519.78
2022-09-23T15:22:16.918Z,98513.16
2022-09-23T15:24:42.823Z,98508.03
2022-09-23T15:26:49.996Z,98512.56
2022-09-23T15:28:54.187Z,98505.56
2022-09-23T15:30:56.464Z,98509.28
2022-09-23T15:32:58.238Z,98511.00
2022-09-23T15:34:59.873Z,98505.19
2022-09-23T15:37:01.558Z,98514.09
2022-09-23T15:39:05.965Z,98509.41
2022-09-23T15:41:07.583Z,98516.34
2022-09-23T15:43:21.854Z,98511.72
2022-09-23T15:45:36.736Z,98503.06
2022-09-23T15:47:38.242Z,98505.59
2022-09-23T15:49:39.979Z,98503.03
2022-09-23T15:51:42.942Z,98500.00
2022-09-23T15:53:44.728Z,98498.56
2022-09-23T15:55:46.392Z,98499.94
2022-09-23T15:57:48.681Z,98506.84
2022-09-23T15:59:50.462Z,98496.56
2022-09-23T16:01:53.470Z,98501.53
2022-09-23T16:03:55.848Z,98494.88
2022-09-23T16:06:01.081Z,98495.44
2022-09-23T16:08:09.173Z,98498.75
2022-09-23T16:10:10.883Z,98500.56
2022-09-23T16:12:12.600Z,98498.34
2022-09-23T16:14:16.529Z,98494.56
2022-09-23T16:16:21.263Z,98495.94
2022-09-23T16:18:23.024Z,98500.88
2022-09-23T16:20:29.131Z,98496.66
2022-09-23T16:22:31.027Z,98492.09
2022-09-23T16:24:32.912Z,98488.66
2022-09-23T16:26:35.963Z,98489.69
2022-09-23T16:28:37.831Z,98481.53
2022-09-23T16:30:39.380Z,98478.09
2022-09-23T16:32:41.141Z,98479.59
2022-09-23T16:34:53.286Z,98482.91
2022-09-23T16:36:54.951Z,98481.47
2022-09-23T16:38:57.339Z,98483.28
2022-09-23T16:41:00.591Z,98487.38
2022-09-23T16:43:05.369Z,98484.78
2022-09-23T16:45:07.724Z,98476.16
2022-09-23T16:47:09.710Z,98477.97
2022-09-23T16:49:12.182Z,98477.81
2022-09-23T16:51:20.524Z,98474.75
2022-09-23T16:53:23.670Z,98476.84
2022-09-23T16:55:29.875Z,98478.66
2022-09-23T16:57:31.442Z,98482.41
2022-09-23T16:59:53.133Z,98478.19
2022-09-23T17:02:13.180Z,98478.69
2022-09-23T17:04:16.992Z,98477.56
2022-09-23T17:06:19.337Z,98474.94
2022-09-23T17:08:20.994Z,98480.66
2022-09-23T17:10:22.577Z,98479.22
2022-09-23T17:12:32.575Z,98489.19
2022-09-23T17:14:34.668Z,98480.69
2022-09-23T17:16:36.356Z,98477.13
2022-09-23T17:18:41.136Z,98479.22
2022-09-23T17:20:42.839Z,98480.50
2022-09-23T17:22:44.413Z,98483.44
2022-09-23T17:24:45.985Z,98491.44
2022-09-23T17:26:53.266Z,98488.00
2022-09-23T17:28:56.572Z,98478.03
2022-09-23T17:31:00.084Z,98482.44
2022-09-23T17:33:01.615Z,98481.75
2022-09-23T17:35:06.820Z,98485.84
2022-09-23T17:37:08.469Z,98480.25
2022-09-23T17:39:10.839Z,98476.81
2022-09-23T17:41:14.315Z,98480.91
2022-09-23T17:43:20.185Z,98477.75
2022-09-23T17:45:21.748Z,98477.72
2022-09-23T17:47:23.432Z,98483.69
2022-09-23T17:49:25.186Z,98493.31
2022-09-23T17:51:27.117Z,98488.53
2022-09-23T17:53:35.062Z,98485.41
2022-09-23T17:55:37.078Z,98483.41
2022-09-23T17:57:38.638Z,98479.47
2022-09-23T17:59:40.373Z,98491.81
2022-09-23T18:01:41.898Z,98488.69
2022-09-23T18:03:43.920Z,98485.84
2022-09-23T18:05:46.440Z,98491.84
2022-09-23T18:07:48.088Z,98494.50
2022-09-23T18:09:49.593Z,98491.38
2022-09-23T18:11:51.299Z,98488.22
2022-09-23T18:13:57.995Z,98487.03
2022-09-23T18:16:02.358Z,98480.63
2022-09-23T18:18:05.668Z,98481.88
2022-09-23T18:20:08.006Z,98484.25
2022-09-23T18:22:09.459Z,98485.00
2022-09-23T18:26:34.367Z,98490.03
2022-09-23T18:28:35.965Z,98483.28
2022-09-23T18:30:37.648Z,98483.19
2022-09-23T18:32:39.570Z,98478.06
2022-09-23T18:34:44.099Z,98478.50
2022-09-23T18:36:45.787Z,98476.13
2022-09-23T18:38:51.049Z,98486.47
2022-09-23T18:40:56.987Z,98474.53
2022-09-23T18:42:58.575Z,98477.72
2022-09-23T18:45:00.260Z,98480.84
2022-09-23T18:47:01.856Z,98476.88
2022-09-23T18:49:22.272Z,98488.00
2022-09-23T18:51:26.127Z,98481.75
2022-09-23T18:53:27.623Z,98479.75
2022-09-23T18:55:29.063Z,98482.59
2022-09-23T18:57:30.926Z,98486.56
2022-09-23T18:59:36.935Z,98488.56
2022-09-23T19:01:38.888Z,98496.09
2022-09-23T19:03:41.108Z,98487.91
2022-09-23T19:05:42.532Z,98481.38
2022-09-23T19:07:44.223Z,98486.97
2022-09-23T19:09:45.938Z,98484.31
2022-09-23T19:11:52.112Z,98476.13
2022-09-23T19:14:02.527Z,98478.13
2022-09-23T19:16:14.878Z,98474.66
2022-09-23T19:18:17.469Z,98477.47
2022-09-23T19:20:19.164Z,98477.56
2022-09-23T19:22:21.211Z,98477.66
2022-09-23T19:24:22.899Z,98479.38
2022-09-23T19:26:27.546Z,98482.72
2022-09-23T19:28:29.341Z,98487.22
2022-09-23T19:30:30.953Z,98485.34
2022-09-23T19:32:34.716Z,98483.47
2022-09-23T19:34:37.911Z,98478.06
2022-09-23T19:36:42.224Z,98486.91
2022-09-23T19:38:44.405Z,98477.91
2022-09-23T19:40:49.921Z,98494.19
2022-09-23T19:42:54.060Z,98491.19
2022-09-23T19:44:55.767Z,98491.00
2022-09-23T19:46:57.801Z,98487.16
2022-09-23T19:49:00.575Z,98490.81
2022-09-23T19:51:02.669Z,98487.03
2022-09-23T19:53:05.682Z,98481.28
2022-09-23T19:55:07.833Z,98484.09
2022-09-23T19:57:09.530Z,98486.34
2022-09-23T19:59:14.180Z,98485.59
2022-09-23T20:01:22.998Z,98482.63
2022-09-23T20:03:26.052Z,98476.03
2022-09-23T20:05:35.636Z,98476.63
2022-09-23T20:07:40.245Z,98482.75
2022-09-23T20:09:41.948Z,98480.28
2022-09-23T20:11:44.265Z,98483.59
2022-09-23T20:13:47.555Z,98478.72
2022-09-23T20:15:49.362Z,98486.41
2022-09-23T20:17:51.654Z,98489.78
2022-09-23T20:19:57.829Z,98485.69
2022-09-23T20:22:19.253Z,98480.47
2022-09-23T20:24:20.861Z,98471.97
2022-09-23T20:26:41.040Z,98484.09
2022-09-23T20:28:42.839Z,98477.56
2022-09-23T20:30:44.453Z,98474.25
2022-09-23T20:32:48.119Z,98465.47
2022-09-23T20:34:49.879Z,98468.53
2022-09-23T20:36:51.355Z,98466.34
2022-09-23T20:39:01.991Z,98462.25
2022-09-23T20:41:03.602Z,98469.16
2022-09-23T20:43:05.303Z,98463.94
2022-09-23T20:45:07.572Z,98459.03
2022-09-23T20:47:14.012Z,98465.94
2022-09-23T20:49:16.712Z,98463.47
2022-09-23T20:51:20.104Z,98463.22
2022-09-23T20:53:24.486Z,98457.97
2022-09-23T20:55:26.161Z,98461.03
2022-09-23T20:57:29.743Z,98459.69
2022-09-23T20:59:31.812Z,98459.44
2022-09-23T21:01:37.314Z,98458.09
2022-09-23T21:03:41.219Z,98460.00
2022-09-23T21:05:42.806Z,98457.56
2022-09-23T21:07:47.398Z,98462.03
2022-09-23T21:09:48.971Z,98457.63
2022-09-23T21:11:52.207Z,98458.72
2022-09-23T21:14:03.460Z,98463.69
2022-09-23T21:16:11.390Z,98462.34
2022-09-23T21:18:16.315Z,98462.66
2022-09-23T21:20:21.449Z,98462.13
2022-09-23T21:22:23.455Z,98460.47
2022-09-23T21:25:00.397Z,98455.53
2022-09-23T21:26:50.396Z,98457.78
2022-09-23T21:28:55.543Z,98452.84
2022-09-23T21:31:12.187Z,98455.91
2022-09-23T21:33:14.566Z,98453.41
2022-09-23T21:35:18.924Z,98453.72
2022-09-23T21:37:21.609Z,98452.91
2022-09-23T21:39:23.513Z,98459.53
2022-09-23T21:41:25.603Z,98452.38
2022-09-23T21:43:31.613Z,98449.91
2022-09-23T21:45:33.878Z,98451.31
2022-09-23T21:47:35.369Z,98451.31
2022-09-23T21:49:36.954Z,98454.34
2022-09-23T21:51:42.949Z,98452.72
2022-09-23T21:53:45.240Z,98456.84
2022-09-23T21:55:48.693Z,98445.88
2022-09-23T21:57:51.562Z,98450.00
2022-09-23T21:59:54.241Z,98444.78
2022-09-23T22:01:55.791Z,98450.59
2022-09-23T22:04:01.868Z,98447.00
2022-09-23T22:06:05.059Z,98450.84
2022-09-23T22:08:11.959Z,98443.72
2022-09-23T22:10:13.600Z,98442.38
2022-09-23T22:12:21.197Z,98437.97
2022-09-23T22:14:26.040Z,98442.66
2022-09-23T22:16:29.215Z,98432.25
2022-09-23T22:18:30.963Z,98435.78
2022-09-23T22:20:33.965Z,98435.28
2022-09-23T22:22:35.927Z,98435.56
2022-09-23T22:24:37.554Z,98422.91
2022-09-23T22:26:41.735Z,98422.09
2022-09-23T22:29:02.261Z,98424.31
2022-09-23T22:31:22.681Z,98426.25
2022-09-23T22:33:24.258Z,98426.53
2022-09-23T22:35:26.005Z,98422.97
2022-09-23T22:37:30.458Z,98424.88
2022-09-23T22:39:34.428Z,98427.09
2022-09-23T22:41:36.455Z,98424.38
2022-09-23T22:43:38.332Z,98426.28
2022-09-23T22:45:40.048Z,98426.28
2022-09-23T22:47:47.034Z,98430.16
2022-09-23T22:49:55.573Z,98422.19
2022-09-23T22:51:57.297Z,98424.13
2022-09-23T22:53:58.842Z,98424.41
2022-09-23T22:56:01.251Z,98429.91
2022-09-23T22:58:21.201Z,98423.56
2022-09-23T23:00:24.382Z,98419.22
2022-09-23T23:02:27.021Z,98424.69
2022-09-23T23:04:29.993Z,98425.78
2022-09-23T23:06:36.683Z,98427.72
2022-09-23T23:08:38.742Z,98429.94
2022-09-23T23:10:42.181Z,98426.94
2022-09-23T23:12:46.866Z,98433.50
2022-09-23T23:14:49.513Z,98428.03
2022-09-23T23:16:51.046Z,98430.25
2022-09-23T23:18:53.810Z,98430.78
2022-09-23T23:20:57.350Z,98421.69
2022-09-23T23:23:02.124Z,98423.63
2022-09-23T23:25:06.534Z,98424.75
2022-09-23T23:27:08.072Z,98422.25
2022-09-23T23:29:11.007Z,98426.66
2022-09-23T23:31:15.885Z,98420.34
2022-09-23T23:33:17.429Z,98429.72
2022-09-23T23:35:19.000Z,98420.63
2022-09-23T23:37:21.171Z,98419.81
2022-09-23T23:39:26.746Z,98420.63
2022-09-23T23:41:28.888Z,98414.31
2022-09-23T23:43:31.964Z,98406.66
2022-09-23T23:45:33.626Z,98417.63
2022-09-23T23:47:35.573Z,98415.19
2022-09-23T23:49:37.122Z,98406.13
2022-09-23T23:51:41.747Z,98408.34
2022-09-23T23:53:43.898Z,98401.19
2022-09-23T23:55:45.855Z,98402.84
2022-09-23T23:57:51.346Z,98399.84
2022-09-23T23:59:55.945Z,98400.94
